Anton Krämer

Scout - Hamburger SV
4 Apr 2027
Sunday
Process

Personality

Adaptability (2) Ambition (16) Controversy (3) Loyalty (8) Pressure (10) Professionalism (15) Sportsmanship (19) Temperament (14)

Profile

Coaching Style Democratic
License National B
Determination 11
Man Management 13
Motivating 9
Discipline 11
Job Satisfaction
61%
Fatigue
0%
Role Scout
Wage 28.7K p/w
Contract 14.03.2030

Performance

Behaviour Good
Training Effectiveness
31%
Player Development
60%
Injury Prevention
40%
Tactical Implementation
45%

Recent Events

Assessed a player now
Assessed a player now
Attended a recruitment meeting now
Assessed a player now
Assessed a player now
Assessed a player now
Observed a match 7d ago
Assessed a player 7d ago

Currently Monitoring

82
Player Club Status Ability Confidence Watched Last Observed Latest Vote
João Teixeira Porto Active 103 / 120 40% 3 02.04.2027 -
Samuele di Benedetto Charlton Athletic Active 106 / 111 40% 1 02.04.2027 -
Florián Monzón Atlas Active 132 / 133 40% 3 01.04.2027 -
Ekain Orobengoa Real Sociedad Active 98 / 109 40% 1 01.04.2027 -
Martim Cunha Porto Active 97 / 99 40% 2 31.03.2027 -
Enis Destan Konyaspor Active 129 / 129 40% 1 31.03.2027 -
Gonzalo Plata Dinamo Moscow Active 126 / 129 40% 1 31.03.2027 -
Nacer Tielemans Mouscron Active 140 / 140 40% 1 31.03.2027 -
Yorbe Vertessen Red Bull Salzburg Active 128 / 126 40% 2 29.03.2027 -
Sergio Quintero La Equidad Active 128 / 152 40% 2 29.03.2027 -
Riyad Idrissi Cagliari Active 124 / 134 40% 1 29.03.2027 -
Jackson Muleka Konyaspor Active 113 / 115 40% 1 29.03.2027 -
Maldini Kacurri Grimsby Town Active 89 / 90 40% 1 27.03.2027 -
Tiago Freitas Benfica Active 105 / 109 40% 2 26.03.2027 -
Gonçalo Moreira Benfica Active 109 / 126 40% 1 26.03.2027 -
Elijah Dijkstra Feyenoord Active 122 / 137 40% 1 26.03.2027 -
Matthew Litherland Blackburn Rovers Active 106 / 120 40% 1 26.03.2027 -
Chris Rigg Sunderland Active 122 / 142 40% 3 25.03.2027 -
Sabil Hansen Randers Active 92 / 110 40% 1 25.03.2027 -
Felipe Augusto Zenit Active 119 / 122 40% 2 23.03.2027 -
Augusto Bando Ascoli Active 108 / 114 40% 3 23.03.2027 -
García Pascual Cádiz Active 120 / 115 40% 1 23.03.2027 -
Khalis Merah LOSC Lille Active 129 / 126 40% 1 23.03.2027 -
Joaquin Seys Club Brugge Active 137 / 133 40% 1 22.03.2027 -
Jaydee Canvot Crystal Palace Active 130 / 138 40% 3 21.03.2027 -
Freddie Draper Lincoln City Active 107 / 120 40% 1 20.03.2027 -
Dylan Vente Heerenveen Active 125 / 113 40% 1 20.03.2027 -
Axel Tape Bayer Leverkusen Active 130 / 130 40% 2 19.03.2027 -
Siyabonga Mokoena SuperSport United Active 108 / 94 40% 1 19.03.2027 -
Vanja Dragojević Partizan Active 126 / 125 40% 1 17.03.2027 -
Nikolaus Wurmbrand Brighton Active 124 / 130 40% 1 17.03.2027 -
Teun Gijselhart Deportivo La Coruña Active 109 / 108 40% 1 15.03.2027 -
Juan Pablo De la Reta Maipú Active 126 / 130 40% 1 15.03.2027 -
Thiago Silvero River Plate Active 128 / 133 40% 1 13.03.2027 -
Ilja Ishkov Ural Active 90 / 117 40% 1 11.03.2027 -
Mohamadou Kanté West Ham United Active 115 / 115 40% 1 11.03.2027 -
Pedro Zenit Active 144 / 139 40% 1 05.03.2027 -
Robert FC Copenhagen Active 122 / 124 40% 1 05.03.2027 -
Simone Kosijer Triestina Active 87 / 99 40% 1 02.03.2027 -
Lior Kasa Maccabi Haifa Active 117 / 100 40% 1 01.03.2027 -
Sam Parker Swansea City Active 101 / 94 40% 1 01.03.2027 -
Efraín Álvarez Guadalajara Active 146 / 121 40% 5 29.01.2027 -
Adrian Benedyczak Kasimpasa Active 109 / 120 40% 1 29.01.2027 -
Ezechiel Banzuzi RB Leipzig Lost 125 / 136 55% 1 18.01.2027 -
Exequiel Zeballos Boca Juniors Active 132 / 144 40% 2 26.12.2026 -
Ousmane Camara Castellón Active 114 / 123 40% 1 26.12.2026 -
Matteo di Giusto Luzern Active 124 / 126 40% 2 22.12.2026 -
Danylo Sikan Anderlecht Active 118 / 131 40% 1 20.12.2026 -
Sinan Karweina Luzern Active 105 / 109 40% 3 17.12.2026 -
Juan-José Perea Zurich Active 113 / 125 40% 2 09.12.2026 -
Josias Lukembila Sion Lost 108 / 125 40% 3 04.12.2026 -
Brayan León Mamelodi Sundowns Active 105 / 106 40% 2 04.12.2026 -
Marcos Paulo Juventude Active 103 / 116 40% 1 02.12.2026 -
Jalen Blesa Rio Ave Active 123 / 121 40% 1 02.12.2026 -
Bojan Radulović Huddersfield Town Active 118 / 109 40% 1 01.12.2026 -
Alan Velasco Boca Juniors Active 138 / 120 40% 1 24.11.2026 -
Fiete Arp OB Active 114 / 132 40% 1 24.11.2026 -
Tadeo Allende Inter Miami CF Active 138 / 130 40% 3 23.11.2026 -
Juan Manuel Boselli Krasnodar Active 138 / 133 40% 1 23.11.2026 -
Carlos Martín Atlético Madrid Active 125 / 130 40% 2 17.11.2026 -
Ramiro Ruiz Rodríguez Atlético Tucumán Active 128 / 132 40% 1 17.11.2026 -
Maurits Kjærgaard Red Bull Salzburg Active 140 / 128 40% 2 15.11.2026 -
Philippe Keny Zurich Active 119 / 123 40% 2 15.11.2026 -
Ilyas Chouaref Sion Active 126 / 125 40% 2 11.11.2026 -
Luca Orellano Monterrey Active 142 / 145 40% 3 11.11.2026 -
Alexander Díaz Deportivo Riestra Active 108 / 110 40% 2 01.11.2026 -
Ignacio Russo Tigre Active 110 / 120 40% 1 31.10.2026 -
Jefry Zapata Once Caldas Active 102 / 118 40% 2 25.10.2026 -
Cesar Corona Veracruz Active 147 / 131 40% 1 16.10.2026 -
Favio Cabral Mitre Active 129 / 115 40% 2 02.10.2026 -
Julian von Moos Grasshopper Active 121 / 117 40% 1 02.10.2026 -
Luciano Gondou CSKA Moscow Active 115 / 125 40% 1 24.09.2026 -
Brandon Vázquez Austin FC Active 136 / 110 40% 1 24.09.2026 -
Kévin Denkey FC Cincinnati Active 142 / 130 40% 2 23.09.2026 -
Rilind Nivokazi Sion Active 107 / 110 40% 2 23.09.2026 -
Indiana Vassilev Philadelphia Union Active 112 / 117 40% 1 18.09.2026 -
Manfred Ugalde Spartak Moscow Active 131 / 119 40% 2 13.09.2026 -
Agustín Venezia Iquique Active 92 / 118 40% 1 09.09.2026 -
Elías Báez Atlanta United FC Active 131 / 124 40% 1 01.09.2026 -
Umeh Emmanuel Zurich Active 110 / 116 40% 1 17.08.2026 -
Oliver Dovin Coventry City Active 122 / 130 40% 1 01.08.2026 -
Lucas Bergström Mallorca Active 125 / 115 40% 1 01.08.2026 -